sensor_id;sensor_type;location;lat;lon;timestamp;temperature;humidity
3626;DHT22;1827;50.534;8.316;2023-09-07T00:02:14;13.80;99.90
3626;DHT22;1827;50.534;8.316;2023-09-07T00:04:40;13.80;99.90
3626;DHT22;1827;50.534;8.316;2023-09-07T00:07:05;13.70;99.90
3626;DHT22;1827;50.534;8.316;2023-09-07T00:09:31;13.70;99.90
3626;DHT22;1827;50.534;8.316;2023-09-07T00:11:56;13.60;99.90
3626;DHT22;1827;50.534;8.316;2023-09-07T00:14:22;13.60;99.90
3626;DHT22;1827;50.534;8.316;2023-09-07T00:16:47;13.50;99.90
3626;DHT22;1827;50.534;8.316;2023-09-07T00:19:13;13.60;99.90
3626;DHT22;1827;50.534;8.316;2023-09-07T00:21:38;13.60;99.90
3626;DHT22;1827;50.534;8.316;2023-09-07T00:24:04;13.60;72.50
3626;DHT22;1827;50.534;8.316;2023-09-07T00:26:31;13.70;39.80
3626;DHT22;1827;50.534;8.316;2023-09-07T00:28:57;13.60;1.00
3626;DHT22;1827;50.534;8.316;2023-09-07T00:31:22;13.40;1.00
3626;DHT22;1827;50.534;8.316;2023-09-07T00:33:48;13.30;1.00
3626;DHT22;1827;50.534;8.316;2023-09-07T00:36:14;13.30;1.00
3626;DHT22;1827;50.534;8.316;2023-09-07T00:38:39;13.20;1.00
3626;DHT22;1827;50.534;8.316;2023-09-07T00:41:06;13.10;1.00
3626;DHT22;1827;50.534;8.316;2023-09-07T00:43:31;13.10;1.00
3626;DHT22;1827;50.534;8.316;2023-09-07T00:45:57;13.00;1.00
3626;DHT22;1827;50.534;8.316;2023-09-07T00:48:23;13.00;99.90
3626;DHT22;1827;50.534;8.316;2023-09-07T00:50:49;13.00;99.90
3626;DHT22;1827;50.534;8.316;2023-09-07T00:53:15;13.00;99.90
3626;DHT22;1827;50.534;8.316;2023-09-07T00:55:40;12.90;99.90
3626;DHT22;1827;50.534;8.316;2023-09-07T00:58:06;12.90;99.90
3626;DHT22;1827;50.534;8.316;2023-09-07T01:00:32;12.90;99.90
3626;DHT22;1827;50.534;8.316;2023-09-07T01:02:59;12.90;99.90
3626;DHT22;1827;50.534;8.316;2023-09-07T01:05:31;12.90;99.90
3626;DHT22;1827;50.534;8.316;2023-09-07T01:07:59;12.80;99.90
3626;DHT22;1827;50.534;8.316;2023-09-07T01:10:27;12.80;99.90
3626;DHT22;1827;50.534;8.316;2023-09-07T01:12:52;12.80;1.00
3626;DHT22;1827;50.534;8.316;2023-09-07T01:15:18;12.80;1.00
3626;DHT22;1827;50.534;8.316;2023-09-07T01:17:43;12.80;1.00
3626;DHT22;1827;50.534;8.316;2023-09-07T01:20:09;12.80;99.90
3626;DHT22;1827;50.534;8.316;2023-09-07T01:22:37;12.80;99.90
3626;DHT22;1827;50.534;8.316;2023-09-07T01:25:04;12.80;1.00
3626;DHT22;1827;50.534;8.316;2023-09-07T01:27:30;12.80;1.00
3626;DHT22;1827;50.534;8.316;2023-09-07T01:29:57;12.70;99.90
3626;DHT22;1827;50.534;8.316;2023-09-07T01:32:22;12.70;99.90
3626;DHT22;1827;50.534;8.316;2023-09-07T01:34:48;12.60;1.00
3626;DHT22;1827;50.534;8.316;2023-09-07T01:37:14;12.60;1.00
3626;DHT22;1827;50.534;8.316;2023-09-07T01:39:39;12.60;1.00
3626;DHT22;1827;50.534;8.316;2023-09-07T01:42:05;12.50;99.90
3626;DHT22;1827;50.534;8.316;2023-09-07T01:44:30;12.50;99.90
3626;DHT22;1827;50.534;8.316;2023-09-07T01:46:56;12.50;99.90
3626;DHT22;1827;50.534;8.316;2023-09-07T01:49:21;12.50;1.00
3626;DHT22;1827;50.534;8.316;2023-09-07T01:51:47;12.40;1.00
3626;DHT22;1827;50.534;8.316;2023-09-07T01:54:13;12.40;1.00
3626;DHT22;1827;50.534;8.316;2023-09-07T01:56:38;12.30;1.00
3626;DHT22;1827;50.534;8.316;2023-09-07T01:59:06;12.40;1.00
3626;DHT22;1827;50.534;8.316;2023-09-07T02:01:32;12.30;1.00
3626;DHT22;1827;50.534;8.316;2023-09-07T02:04:02;12.30;1.00
3626;DHT22;1827;50.534;8.316;2023-09-07T02:06:27;12.20;1.00
3626;DHT22;1827;50.534;8.316;2023-09-07T02:08:53;12.20;1.00
3626;DHT22;1827;50.534;8.316;2023-09-07T02:11:19;12.20;99.90
3626;DHT22;1827;50.534;8.316;2023-09-07T02:13:46;12.10;99.90
3626;DHT22;1827;50.534;8.316;2023-09-07T02:16:12;12.10;1.00
3626;DHT22;1827;50.534;8.316;2023-09-07T02:18:37;12.10;1.00
3626;DHT22;1827;50.534;8.316;2023-09-07T02:21:05;12.10;99.90
3626;DHT22;1827;50.534;8.316;2023-09-07T02:23:31;12.00;99.90
3626;DHT22;1827;50.534;8.316;2023-09-07T02:25:57;12.00;1.00
3626;DHT22;1827;50.534;8.316;2023-09-07T02:28:23;11.90;85.40
3626;DHT22;1827;50.534;8.316;2023-09-07T02:30:49;11.90;99.90
3626;DHT22;1827;50.534;8.316;2023-09-07T02:33:15;12.00;1.00
3626;DHT22;1827;50.534;8.316;2023-09-07T02:35:41;11.90;99.90
3626;DHT22;1827;50.534;8.316;2023-09-07T02:38:07;11.90;1.00
3626;DHT22;1827;50.534;8.316;2023-09-07T02:40:32;11.80;1.00
3626;DHT22;1827;50.534;8.316;2023-09-07T02:42:58;11.70;99.90
3626;DHT22;1827;50.534;8.316;2023-09-07T02:45:23;11.70;1.00
3626;DHT22;1827;50.534;8.316;2023-09-07T02:47:49;11.60;1.00
3626;DHT22;1827;50.534;8.316;2023-09-07T02:50:16;11.50;99.90
3626;DHT22;1827;50.534;8.316;2023-09-07T02:52:43;11.50;1.00
3626;DHT22;1827;50.534;8.316;2023-09-07T02:55:08;11.40;1.00
3626;DHT22;1827;50.534;8.316;2023-09-07T02:57:35;11.40;1.00
3626;DHT22;1827;50.534;8.316;2023-09-07T03:00:01;11.40;1.00
3626;DHT22;1827;50.534;8.316;2023-09-07T03:02:35;11.30;12.30
3626;DHT22;1827;50.534;8.316;2023-09-07T03:05:01;11.30;99.90
3626;DHT22;1827;50.534;8.316;2023-09-07T03:07:29;11.30;99.90
3626;DHT22;1827;50.534;8.316;2023-09-07T03:09:55;11.40;99.90
3626;DHT22;1827;50.534;8.316;2023-09-07T03:12:21;11.50;99.90
3626;DHT22;1827;50.534;8.316;2023-09-07T03:14:47;11.40;99.90
3626;DHT22;1827;50.534;8.316;2023-09-07T03:17:14;11.50;99.90
3626;DHT22;1827;50.534;8.316;2023-09-07T03:19:42;11.50;99.90
3626;DHT22;1827;50.534;8.316;2023-09-07T03:22:08;11.50;99.90
3626;DHT22;1827;50.534;8.316;2023-09-07T03:24:34;11.50;99.90
3626;DHT22;1827;50.534;8.316;2023-09-07T03:27:00;11.50;99.90
3626;DHT22;1827;50.534;8.316;2023-09-07T03:29:25;11.40;99.90
3626;DHT22;1827;50.534;8.316;2023-09-07T03:31:51;11.40;99.90
3626;DHT22;1827;50.534;8.316;2023-09-07T03:34:17;11.40;99.90
3626;DHT22;1827;50.534;8.316;2023-09-07T03:36:43;11.40;99.90
3626;DHT22;1827;50.534;8.316;2023-09-07T03:39:08;11.50;99.90
3626;DHT22;1827;50.534;8.316;2023-09-07T03:41:35;11.40;99.90
3626;DHT22;1827;50.534;8.316;2023-09-07T03:44:01;11.40;99.90
3626;DHT22;1827;50.534;8.316;2023-09-07T03:46:28;11.40;99.90
3626;DHT22;1827;50.534;8.316;2023-09-07T03:48:54;11.40;99.90
3626;DHT22;1827;50.534;8.316;2023-09-07T03:51:20;11.30;99.90
3626;DHT22;1827;50.534;8.316;2023-09-07T03:53:45;11.30;99.90
3626;DHT22;1827;50.534;8.316;2023-09-07T03:56:11;11.30;99.90
3626;DHT22;1827;50.534;8.316;2023-09-07T03:58:37;11.30;99.90
3626;DHT22;1827;50.534;8.316;2023-09-07T04:01:03;11.30;99.90
3626;DHT22;1827;50.534;8.316;2023-09-07T04:03:29;11.40;99.90
3626;DHT22;1827;50.534;8.316;2023-09-07T04:05:56;11.50;99.90
3626;DHT22;1827;50.534;8.316;2023-09-07T04:08:21;11.40;99.90
3626;DHT22;1827;50.534;8.316;2023-09-07T04:10:47;11.40;99.90
3626;DHT22;1827;50.534;8.316;2023-09-07T04:13:12;11.30;99.90
3626;DHT22;1827;50.534;8.316;2023-09-07T04:15:41;11.20;99.90
3626;DHT22;1827;50.534;8.316;2023-09-07T04:18:08;11.10;99.90
3626;DHT22;1827;50.534;8.316;2023-09-07T04:20:34;11.10;99.90
3626;DHT22;1827;50.534;8.316;2023-09-07T04:23:00;11.10;99.90
3626;DHT22;1827;50.534;8.316;2023-09-07T04:25:25;11.10;99.90
3626;DHT22;1827;50.534;8.316;2023-09-07T04:27:51;11.10;99.90
3626;DHT22;1827;50.534;8.316;2023-09-07T04:30:17;11.10;99.90
3626;DHT22;1827;50.534;8.316;2023-09-07T04:32:43;11.10;99.90
3626;DHT22;1827;50.534;8.316;2023-09-07T04:35:08;11.10;99.90
3626;DHT22;1827;50.534;8.316;2023-09-07T04:37:35;11.10;99.90
3626;DHT22;1827;50.534;8.316;2023-09-07T04:40:01;11.00;99.90
3626;DHT22;1827;50.534;8.316;2023-09-07T04:42:28;11.10;99.90
3626;DHT22;1827;50.534;8.316;2023-09-07T04:44:53;11.10;99.90
3626;DHT22;1827;50.534;8.316;2023-09-07T04:47:19;11.10;99.90
3626;DHT22;1827;50.534;8.316;2023-09-07T04:49:48;11.10;99.90
3626;DHT22;1827;50.534;8.316;2023-09-07T04:52:15;11.10;99.90
3626;DHT22;1827;50.534;8.316;2023-09-07T04:54:41;11.10;99.90
3626;DHT22;1827;50.534;8.316;2023-09-07T04:57:06;11.10;99.90
3626;DHT22;1827;50.534;8.316;2023-09-07T04:59:32;11.10;99.90
3626;DHT22;1827;50.534;8.316;2023-09-07T05:02:01;11.00;99.90
3626;DHT22;1827;50.534;8.316;2023-09-07T05:04:29;10.90;99.90
3626;DHT22;1827;50.534;8.316;2023-09-07T05:06:56;11.00;99.90
3626;DHT22;1827;50.534;8.316;2023-09-07T05:09:22;10.90;99.90
3626;DHT22;1827;50.534;8.316;2023-09-07T05:11:49;10.80;99.90
3626;DHT22;1827;50.534;8.316;2023-09-07T05:14:14;10.80;99.90
3626;DHT22;1827;50.534;8.316;2023-09-07T05:16:43;10.80;99.90
3626;DHT22;1827;50.534;8.316;2023-09-07T05:19:09;10.80;99.90
3626;DHT22;1827;50.534;8.316;2023-09-07T05:21:35;10.90;99.90
3626;DHT22;1827;50.534;8.316;2023-09-07T05:24:01;11.00;99.90
3626;DHT22;1827;50.534;8.316;2023-09-07T05:26:26;11.00;99.90
3626;DHT22;1827;50.534;8.316;2023-09-07T05:28:54;11.00;99.90
3626;DHT22;1827;50.534;8.316;2023-09-07T05:31:19;11.10;99.90
3626;DHT22;1827;50.534;8.316;2023-09-07T05:33:45;11.20;99.90
3626;DHT22;1827;50.534;8.316;2023-09-07T05:36:10;11.20;99.90
3626;DHT22;1827;50.534;8.316;2023-09-07T05:38:36;11.30;99.90
3626;DHT22;1827;50.534;8.316;2023-09-07T05:41:03;11.40;99.90
3626;DHT22;1827;50.534;8.316;2023-09-07T05:43:29;11.30;99.90
3626;DHT22;1827;50.534;8.316;2023-09-07T05:45:55;11.40;99.90
3626;DHT22;1827;50.534;8.316;2023-09-07T05:48:20;11.50;99.90
3626;DHT22;1827;50.534;8.316;2023-09-07T05:50:47;11.60;99.90
3626;DHT22;1827;50.534;8.316;2023-09-07T05:53:13;11.70;99.90
3626;DHT22;1827;50.534;8.316;2023-09-07T05:55:38;11.70;99.90
3626;DHT22;1827;50.534;8.316;2023-09-07T05:58:05;11.80;99.90
3626;DHT22;1827;50.534;8.316;2023-09-07T06:00:32;11.90;99.90
3626;DHT22;1827;50.534;8.316;2023-09-07T06:02:57;12.00;99.90
3626;DHT22;1827;50.534;8.316;2023-09-07T06:05:23;12.10;99.90
3626;DHT22;1827;50.534;8.316;2023-09-07T06:07:49;12.20;99.90
3626;DHT22;1827;50.534;8.316;2023-09-07T06:10:16;12.30;99.90
3626;DHT22;1827;50.534;8.316;2023-09-07T06:12:44;12.40;99.90
3626;DHT22;1827;50.534;8.316;2023-09-07T06:15:09;12.50;99.90
3626;DHT22;1827;50.534;8.316;2023-09-07T06:17:36;12.70;99.90
3626;DHT22;1827;50.534;8.316;2023-09-07T06:20:02;12.80;99.90
3626;DHT22;1827;50.534;8.316;2023-09-07T06:22:28;12.90;99.90
3626;DHT22;1827;50.534;8.316;2023-09-07T06:24:54;13.00;99.90
3626;DHT22;1827;50.534;8.316;2023-09-07T06:27:21;13.20;99.90
3626;DHT22;1827;50.534;8.316;2023-09-07T06:29:46;13.20;99.90
3626;DHT22;1827;50.534;8.316;2023-09-07T06:32:13;13.20;99.90
3626;DHT22;1827;50.534;8.316;2023-09-07T06:34:39;13.30;99.90
3626;DHT22;1827;50.534;8.316;2023-09-07T06:37:04;13.40;99.90
3626;DHT22;1827;50.534;8.316;2023-09-07T06:39:31;13.50;99.90
3626;DHT22;1827;50.534;8.316;2023-09-07T06:41:56;13.60;99.90
3626;DHT22;1827;50.534;8.316;2023-09-07T06:44:26;13.70;99.90
3626;DHT22;1827;50.534;8.316;2023-09-07T06:46:52;13.70;99.90
3626;DHT22;1827;50.534;8.316;2023-09-07T06:49:18;13.80;99.90
3626;DHT22;1827;50.534;8.316;2023-09-07T06:51:44;14.00;99.90
3626;DHT22;1827;50.534;8.316;2023-09-07T06:54:10;14.20;99.90
3626;DHT22;1827;50.534;8.316;2023-09-07T06:56:36;14.50;99.90
3626;DHT22;1827;50.534;8.316;2023-09-07T06:59:02;14.70;99.90
3626;DHT22;1827;50.534;8.316;2023-09-07T07:01:28;14.70;99.90
3626;DHT22;1827;50.534;8.316;2023-09-07T07:03:54;14.80;99.90
3626;DHT22;1827;50.534;8.316;2023-09-07T07:06:20;15.20;99.90
3626;DHT22;1827;50.534;8.316;2023-09-07T07:08:46;15.00;99.90
3626;DHT22;1827;50.534;8.316;2023-09-07T07:11:11;15.10;99.90
3626;DHT22;1827;50.534;8.316;2023-09-07T07:13:37;15.30;99.90
3626;DHT22;1827;50.534;8.316;2023-09-07T07:16:03;15.40;99.90
3626;DHT22;1827;50.534;8.316;2023-09-07T07:18:30;15.50;99.90
3626;DHT22;1827;50.534;8.316;2023-09-07T07:20:57;15.60;99.90
3626;DHT22;1827;50.534;8.316;2023-09-07T07:23:23;16.00;99.90
3626;DHT22;1827;50.534;8.316;2023-09-07T07:25:48;16.20;99.90
3626;DHT22;1827;50.534;8.316;2023-09-07T07:28:15;16.60;99.90
3626;DHT22;1827;50.534;8.316;2023-09-07T07:30:41;16.60;99.90
3626;DHT22;1827;50.534;8.316;2023-09-07T07:33:07;17.00;99.90
3626;DHT22;1827;50.534;8.316;2023-09-07T07:35:33;17.20;99.90
3626;DHT22;1827;50.534;8.316;2023-09-07T07:38:00;17.40;37.20
3626;DHT22;1827;50.534;8.316;2023-09-07T07:40:26;17.70;9.40
3626;DHT22;1827;50.534;8.316;2023-09-07T07:42:52;18.00;1.00
3626;DHT22;1827;50.534;8.316;2023-09-07T07:45:19;18.20;1.00
3626;DHT22;1827;50.534;8.316;2023-09-07T07:47:46;18.20;99.90
3626;DHT22;1827;50.534;8.316;2023-09-07T07:50:12;18.30;99.90
3626;DHT22;1827;50.534;8.316;2023-09-07T07:52:38;18.50;1.00
3626;DHT22;1827;50.534;8.316;2023-09-07T07:55:04;18.70;1.00
3626;DHT22;1827;50.534;8.316;2023-09-07T07:57:31;18.60;99.90
3626;DHT22;1827;50.534;8.316;2023-09-07T07:59:57;18.80;1.00
3626;DHT22;1827;50.534;8.316;2023-09-07T08:02:23;18.90;99.90
3626;DHT22;1827;50.534;8.316;2023-09-07T08:04:48;19.10;99.90
3626;DHT22;1827;50.534;8.316;2023-09-07T08:07:14;19.20;1.00
3626;DHT22;1827;50.534;8.316;2023-09-07T08:09:40;19.60;1.00
3626;DHT22;1827;50.534;8.316;2023-09-07T08:12:06;19.40;99.90
3626;DHT22;1827;50.534;8.316;2023-09-07T08:14:33;19.60;99.90
3626;DHT22;1827;50.534;8.316;2023-09-07T08:17:01;19.90;99.90
3626;DHT22;1827;50.534;8.316;2023-09-07T08:19:27;20.00;59.10
3626;DHT22;1827;50.534;8.316;2023-09-07T08:21:57;20.60;1.00
3626;DHT22;1827;50.534;8.316;2023-09-07T08:24:23;20.40;1.00
3626;DHT22;1827;50.534;8.316;2023-09-07T08:26:49;21.20;1.00
3626;DHT22;1827;50.534;8.316;2023-09-07T08:29:16;21.00;1.00
3626;DHT22;1827;50.534;8.316;2023-09-07T08:31:42;21.30;1.00
3626;DHT22;1827;50.534;8.316;2023-09-07T08:34:10;21.80;1.00
3626;DHT22;1827;50.534;8.316;2023-09-07T08:36:36;22.50;1.00
3626;DHT22;1827;50.534;8.316;2023-09-07T08:39:03;21.70;1.00
3626;DHT22;1827;50.534;8.316;2023-09-07T08:41:31;22.10;1.00
3626;DHT22;1827;50.534;8.316;2023-09-07T08:43:57;22.90;1.00
3626;DHT22;1827;50.534;8.316;2023-09-07T08:46:23;22.40;1.00
3626;DHT22;1827;50.534;8.316;2023-09-07T08:48:49;22.40;1.00
3626;DHT22;1827;50.534;8.316;2023-09-07T08:51:15;22.30;1.00
3626;DHT22;1827;50.534;8.316;2023-09-07T08:53:42;22.20;1.00
3626;DHT22;1827;50.534;8.316;2023-09-07T08:56:14;22.50;1.00
3626;DHT22;1827;50.534;8.316;2023-09-07T08:58:40;21.90;1.00
3626;DHT22;1827;50.534;8.316;2023-09-07T09:01:05;22.20;1.00
3626;DHT22;1827;50.534;8.316;2023-09-07T09:03:31;22.30;1.00
3626;DHT22;1827;50.534;8.316;2023-09-07T09:05:57;22.40;1.00
3626;DHT22;1827;50.534;8.316;2023-09-07T09:08:22;22.80;1.00
3626;DHT22;1827;50.534;8.316;2023-09-07T09:10:58;23.10;1.00
3626;DHT22;1827;50.534;8.316;2023-09-07T09:13:28;23.70;1.00
3626;DHT22;1827;50.534;8.316;2023-09-07T09:15:53;23.40;1.00
3626;DHT22;1827;50.534;8.316;2023-09-07T09:18:19;23.20;1.00
3626;DHT22;1827;50.534;8.316;2023-09-07T09:20:44;23.20;1.00
3626;DHT22;1827;50.534;8.316;2023-09-07T09:23:10;23.40;1.00
3626;DHT22;1827;50.534;8.316;2023-09-07T09:25:39;23.40;1.00
3626;DHT22;1827;50.534;8.316;2023-09-07T09:28:05;23.90;1.00
3626;DHT22;1827;50.534;8.316;2023-09-07T09:30:30;25.10;1.00
3626;DHT22;1827;50.534;8.316;2023-09-07T09:32:56;24.30;1.00
3626;DHT22;1827;50.534;8.316;2023-09-07T09:35:22;24.20;1.00
3626;DHT22;1827;50.534;8.316;2023-09-07T09:37:48;24.90;1.00
3626;DHT22;1827;50.534;8.316;2023-09-07T09:40:14;25.50;1.00
3626;DHT22;1827;50.534;8.316;2023-09-07T09:42:42;24.90;1.00
3626;DHT22;1827;50.534;8.316;2023-09-07T09:45:09;24.60;1.00
3626;DHT22;1827;50.534;8.316;2023-09-07T09:47:36;24.50;1.00
3626;DHT22;1827;50.534;8.316;2023-09-07T09:50:04;24.90;1.00
3626;DHT22;1827;50.534;8.316;2023-09-07T09:52:31;25.10;1.00
3626;DHT22;1827;50.534;8.316;2023-09-07T09:54:59;24.50;1.00
3626;DHT22;1827;50.534;8.316;2023-09-07T09:57:25;24.80;1.00
3626;DHT22;1827;50.534;8.316;2023-09-07T09:59:53;24.70;1.00
3626;DHT22;1827;50.534;8.316;2023-09-07T10:02:19;25.10;1.00
3626;DHT22;1827;50.534;8.316;2023-09-07T10:04:45;24.30;99.90
3626;DHT22;1827;50.534;8.316;2023-09-07T10:07:11;24.50;1.00
3626;DHT22;1827;50.534;8.316;2023-09-07T10:09:37;24.10;99.90
3626;DHT22;1827;50.534;8.316;2023-09-07T10:12:03;24.40;1.00
3626;DHT22;1827;50.534;8.316;2023-09-07T10:14:39;25.40;1.00
3626;DHT22;1827;50.534;8.316;2023-09-07T10:17:05;25.80;1.00
3626;DHT22;1827;50.534;8.316;2023-09-07T10:19:31;25.60;1.00
3626;DHT22;1827;50.534;8.316;2023-09-07T10:21:57;25.30;1.00
3626;DHT22;1827;50.534;8.316;2023-09-07T10:24:29;25.30;99.90
3626;DHT22;1827;50.534;8.316;2023-09-07T10:26:55;25.50;1.00
3626;DHT22;1827;50.534;8.316;2023-09-07T10:29:21;25.50;99.90
3626;DHT22;1827;50.534;8.316;2023-09-07T10:31:51;25.70;99.90
3626;DHT22;1827;50.534;8.316;2023-09-07T10:34:17;25.80;99.90
3626;DHT22;1827;50.534;8.316;2023-09-07T10:36:43;26.00;99.90
3626;DHT22;1827;50.534;8.316;2023-09-07T10:39:09;25.90;99.90
3626;DHT22;1827;50.534;8.316;2023-09-07T10:41:41;25.60;99.90
3626;DHT22;1827;50.534;8.316;2023-09-07T10:44:08;25.90;99.90
3626;DHT22;1827;50.534;8.316;2023-09-07T10:46:36;25.70;99.90
3626;DHT22;1827;50.534;8.316;2023-09-07T10:49:02;26.00;99.90
3626;DHT22;1827;50.534;8.316;2023-09-07T10:51:28;25.90;99.90
3626;DHT22;1827;50.534;8.316;2023-09-07T10:53:55;25.80;99.90
3626;DHT22;1827;50.534;8.316;2023-09-07T10:56:23;26.00;99.90
3626;DHT22;1827;50.534;8.316;2023-09-07T10:58:49;26.10;99.90
3626;DHT22;1827;50.534;8.316;2023-09-07T11:01:16;25.70;99.90
3626;DHT22;1827;50.534;8.316;2023-09-07T11:03:42;25.80;99.90
3626;DHT22;1827;50.534;8.316;2023-09-07T11:06:09;26.50;99.90
3626;DHT22;1827;50.534;8.316;2023-09-07T11:08:34;25.90;99.90
3626;DHT22;1827;50.534;8.316;2023-09-07T11:11:03;26.20;99.90
3626;DHT22;1827;50.534;8.316;2023-09-07T11:13:29;26.90;99.90
3626;DHT22;1827;50.534;8.316;2023-09-07T11:15:58;27.10;99.90
3626;DHT22;1827;50.534;8.316;2023-09-07T11:18:24;27.20;99.90
3626;DHT22;1827;50.534;8.316;2023-09-07T11:20:51;27.00;99.90
3626;DHT22;1827;50.534;8.316;2023-09-07T11:23:17;26.70;99.90
3626;DHT22;1827;50.534;8.316;2023-09-07T11:25:43;27.40;99.90
3626;DHT22;1827;50.534;8.316;2023-09-07T11:28:08;26.90;99.90
3626;DHT22;1827;50.534;8.316;2023-09-07T11:30:34;27.60;99.90
3626;DHT22;1827;50.534;8.316;2023-09-07T11:33:06;27.50;99.90
3626;DHT22;1827;50.534;8.316;2023-09-07T11:35:33;26.90;99.90
3626;DHT22;1827;50.534;8.316;2023-09-07T11:37:59;27.50;99.90
3626;DHT22;1827;50.534;8.316;2023-09-07T11:40:25;27.30;99.90
3626;DHT22;1827;50.534;8.316;2023-09-07T11:42:50;27.10;99.90
3626;DHT22;1827;50.534;8.316;2023-09-07T11:45:16;28.10;99.90
3626;DHT22;1827;50.534;8.316;2023-09-07T11:47:43;27.20;99.90
3626;DHT22;1827;50.534;8.316;2023-09-07T11:50:09;28.10;99.90
3626;DHT22;1827;50.534;8.316;2023-09-07T11:52:34;27.80;99.90
3626;DHT22;1827;50.534;8.316;2023-09-07T11:55:00;27.50;99.90
3626;DHT22;1827;50.534;8.316;2023-09-07T11:57:25;27.40;99.90
3626;DHT22;1827;50.534;8.316;2023-09-07T11:59:51;28.20;99.90
3626;DHT22;1827;50.534;8.316;2023-09-07T12:02:16;28.60;99.90
3626;DHT22;1827;50.534;8.316;2023-09-07T12:04:43;28.00;99.90
3626;DHT22;1827;50.534;8.316;2023-09-07T12:07:08;27.30;99.90
3626;DHT22;1827;50.534;8.316;2023-09-07T12:09:34;28.00;99.90
3626;DHT22;1827;50.534;8.316;2023-09-07T12:11:59;27.80;99.90
3626;DHT22;1827;50.534;8.316;2023-09-07T12:14:25;27.70;99.90
3626;DHT22;1827;50.534;8.316;2023-09-07T12:16:50;27.60;99.90
3626;DHT22;1827;50.534;8.316;2023-09-07T12:19:16;27.80;99.90
3626;DHT22;1827;50.534;8.316;2023-09-07T12:21:42;27.90;99.90
3626;DHT22;1827;50.534;8.316;2023-09-07T12:24:08;27.90;99.90
3626;DHT22;1827;50.534;8.316;2023-09-07T12:26:33;28.80;99.90
3626;DHT22;1827;50.534;8.316;2023-09-07T12:28:59;28.10;99.90
3626;DHT22;1827;50.534;8.316;2023-09-07T12:31:25;28.00;99.90
3626;DHT22;1827;50.534;8.316;2023-09-07T12:33:50;28.70;99.90
3626;DHT22;1827;50.534;8.316;2023-09-07T12:36:17;28.40;99.90
3626;DHT22;1827;50.534;8.316;2023-09-07T12:38:42;28.40;99.90
3626;DHT22;1827;50.534;8.316;2023-09-07T12:41:08;28.00;99.90
3626;DHT22;1827;50.534;8.316;2023-09-07T12:43:34;28.40;99.90
3626;DHT22;1827;50.534;8.316;2023-09-07T12:45:59;28.40;99.90
3626;DHT22;1827;50.534;8.316;2023-09-07T12:48:25;28.20;99.90
3626;DHT22;1827;50.534;8.316;2023-09-07T12:50:50;28.60;99.90
3626;DHT22;1827;50.534;8.316;2023-09-07T12:53:16;28.20;99.90
3626;DHT22;1827;50.534;8.316;2023-09-07T12:55:42;28.00;99.90
3626;DHT22;1827;50.534;8.316;2023-09-07T12:58:07;28.80;99.90
3626;DHT22;1827;50.534;8.316;2023-09-07T13:00:33;29.00;99.90
3626;DHT22;1827;50.534;8.316;2023-09-07T13:02:59;29.10;99.90
3626;DHT22;1827;50.534;8.316;2023-09-07T13:05:24;28.60;99.90
3626;DHT22;1827;50.534;8.316;2023-09-07T13:07:50;28.90;99.90
3626;DHT22;1827;50.534;8.316;2023-09-07T13:10:16;28.50;99.90
3626;DHT22;1827;50.534;8.316;2023-09-07T13:12:42;28.90;99.90
3626;DHT22;1827;50.534;8.316;2023-09-07T13:15:07;29.70;99.90
3626;DHT22;1827;50.534;8.316;2023-09-07T13:17:33;29.20;99.90
3626;DHT22;1827;50.534;8.316;2023-09-07T13:19:59;28.90;99.90
3626;DHT22;1827;50.534;8.316;2023-09-07T13:22:25;28.80;99.90
3626;DHT22;1827;50.534;8.316;2023-09-07T13:24:50;29.00;99.90
3626;DHT22;1827;50.534;8.316;2023-09-07T13:27:16;29.20;99.90
3626;DHT22;1827;50.534;8.316;2023-09-07T13:29:42;30.20;99.90
3626;DHT22;1827;50.534;8.316;2023-09-07T13:32:08;30.80;99.90
3626;DHT22;1827;50.534;8.316;2023-09-07T13:34:33;29.80;99.90
3626;DHT22;1827;50.534;8.316;2023-09-07T13:36:59;29.10;99.90
3626;DHT22;1827;50.534;8.316;2023-09-07T13:39:24;29.80;99.90
3626;DHT22;1827;50.534;8.316;2023-09-07T13:41:50;29.20;99.90
3626;DHT22;1827;50.534;8.316;2023-09-07T13:44:16;29.20;99.90
3626;DHT22;1827;50.534;8.316;2023-09-07T13:46:42;28.90;99.90
3626;DHT22;1827;50.534;8.316;2023-09-07T13:49:09;28.50;99.90
3626;DHT22;1827;50.534;8.316;2023-09-07T13:51:35;29.00;99.90
3626;DHT22;1827;50.534;8.316;2023-09-07T13:54:04;29.50;99.90
3626;DHT22;1827;50.534;8.316;2023-09-07T13:56:30;29.70;99.90
3626;DHT22;1827;50.534;8.316;2023-09-07T13:58:56;30.10;99.90
3626;DHT22;1827;50.534;8.316;2023-09-07T14:01:21;29.60;99.90
3626;DHT22;1827;50.534;8.316;2023-09-07T14:03:47;29.10;99.90
3626;DHT22;1827;50.534;8.316;2023-09-07T14:06:13;29.40;99.90
3626;DHT22;1827;50.534;8.316;2023-09-07T14:08:38;30.20;99.90
3626;DHT22;1827;50.534;8.316;2023-09-07T14:11:04;29.30;99.90
3626;DHT22;1827;50.534;8.316;2023-09-07T14:13:31;29.40;99.90
3626;DHT22;1827;50.534;8.316;2023-09-07T14:15:59;29.20;99.90
3626;DHT22;1827;50.534;8.316;2023-09-07T14:18:25;28.90;99.90
3626;DHT22;1827;50.534;8.316;2023-09-07T14:20:51;28.90;99.90
3626;DHT22;1827;50.534;8.316;2023-09-07T14:23:17;28.90;99.90
3626;DHT22;1827;50.534;8.316;2023-09-07T14:25:46;28.80;99.90
3626;DHT22;1827;50.534;8.316;2023-09-07T14:28:12;28.70;99.90
3626;DHT22;1827;50.534;8.316;2023-09-07T14:30:38;28.70;99.90
3626;DHT22;1827;50.534;8.316;2023-09-07T14:33:04;28.90;99.90
3626;DHT22;1827;50.534;8.316;2023-09-07T14:35:30;28.60;99.90
3626;DHT22;1827;50.534;8.316;2023-09-07T14:37:56;28.70;99.90
3626;DHT22;1827;50.534;8.316;2023-09-07T14:40:21;28.70;99.90
3626;DHT22;1827;50.534;8.316;2023-09-07T14:42:49;28.60;99.90
3626;DHT22;1827;50.534;8.316;2023-09-07T14:45:16;28.60;99.90
3626;DHT22;1827;50.534;8.316;2023-09-07T14:47:41;28.70;99.90
3626;DHT22;1827;50.534;8.316;2023-09-07T14:50:07;28.70;99.90
3626;DHT22;1827;50.534;8.316;2023-09-07T14:52:33;28.90;99.90
3626;DHT22;1827;50.534;8.316;2023-09-07T14:55:04;28.50;99.90
3626;DHT22;1827;50.534;8.316;2023-09-07T14:57:29;28.30;99.90
3626;DHT22;1827;50.534;8.316;2023-09-07T14:59:55;28.40;99.90
3626;DHT22;1827;50.534;8.316;2023-09-07T15:02:20;28.40;99.90
3626;DHT22;1827;50.534;8.316;2023-09-07T15:04:46;28.50;99.90
3626;DHT22;1827;50.534;8.316;2023-09-07T15:07:12;28.40;99.90
3626;DHT22;1827;50.534;8.316;2023-09-07T15:09:38;28.20;99.90
3626;DHT22;1827;50.534;8.316;2023-09-07T15:12:03;28.30;99.90
3626;DHT22;1827;50.534;8.316;2023-09-07T15:14:30;28.40;99.90
3626;DHT22;1827;50.534;8.316;2023-09-07T15:16:55;28.40;99.90
3626;DHT22;1827;50.534;8.316;2023-09-07T15:19:21;28.30;99.90
3626;DHT22;1827;50.534;8.316;2023-09-07T15:21:47;28.30;99.90
3626;DHT22;1827;50.534;8.316;2023-09-07T15:24:12;28.20;99.90
3626;DHT22;1827;50.534;8.316;2023-09-07T15:26:41;28.30;99.90
3626;DHT22;1827;50.534;8.316;2023-09-07T15:29:08;28.20;99.90
3626;DHT22;1827;50.534;8.316;2023-09-07T15:31:33;28.20;99.90
3626;DHT22;1827;50.534;8.316;2023-09-07T15:33:59;28.20;99.90
3626;DHT22;1827;50.534;8.316;2023-09-07T15:36:25;28.10;99.90
3626;DHT22;1827;50.534;8.316;2023-09-07T15:38:50;28.10;99.90
3626;DHT22;1827;50.534;8.316;2023-09-07T15:41:16;28.10;99.90
3626;DHT22;1827;50.534;8.316;2023-09-07T15:43:42;28.10;99.90
3626;DHT22;1827;50.534;8.316;2023-09-07T15:46:08;28.20;99.90
3626;DHT22;1827;50.534;8.316;2023-09-07T15:48:33;28.20;99.90
3626;DHT22;1827;50.534;8.316;2023-09-07T15:50:59;28.10;99.90
3626;DHT22;1827;50.534;8.316;2023-09-07T15:53:25;28.00;99.90
3626;DHT22;1827;50.534;8.316;2023-09-07T15:55:51;28.10;99.90
3626;DHT22;1827;50.534;8.316;2023-09-07T15:58:16;28.10;99.90